createdAt,value
2023-03-19T00:00:45.993Z,6.8
2023-03-19T00:01:52.574Z,6.8
2023-03-19T00:03:00.084Z,6.8
2023-03-19T00:04:06.899Z,6.7
2023-03-19T00:05:13.869Z,6.7
2023-03-19T00:06:20.940Z,6.7
2023-03-19T00:07:27.685Z,6.7
2023-03-19T00:09:42.124Z,6.7
2023-03-19T00:10:49.164Z,6.7
2023-03-19T00:11:56.076Z,6.7
2023-03-19T00:13:02.565Z,6.7
2023-03-19T00:14:09.633Z,6.7
2023-03-19T00:15:16.963Z,6.7
2023-03-19T00:16:24.190Z,6.6
2023-03-19T00:17:30.991Z,6.6
2023-03-19T00:18:37.555Z,6.6
2023-03-19T00:19:44.675Z,6.6
2023-03-19T00:20:51.936Z,6.6
2023-03-19T00:21:59.105Z,6.6
2023-03-19T00:23:05.986Z,6.6
2023-03-19T00:24:12.748Z,6.6
2023-03-19T00:25:19.780Z,6.6
2023-03-19T00:26:27.258Z,6.5
2023-03-19T00:27:34.057Z,6.5
2023-03-19T00:28:41.133Z,6.5
2023-03-19T00:29:47.659Z,6.4
2023-03-19T00:30:54.936Z,6.4
2023-03-19T00:32:02.145Z,6.4
2023-03-19T00:33:09.106Z,6.4
2023-03-19T00:34:16.108Z,6.4
2023-03-19T00:35:22.608Z,6.4
2023-03-19T00:36:29.672Z,6.4
2023-03-19T00:37:36.816Z,6.3
2023-03-19T00:38:44.035Z,6.3
2023-03-19T00:39:51.070Z,6.2
2023-03-19T00:40:57.567Z,6.2
2023-03-19T00:42:04.925Z,6.2
2023-03-19T00:43:11.937Z,6.2
2023-03-19T00:44:18.892Z,6.2
2023-03-19T00:45:26.204Z,6.2
2023-03-19T00:46:33.057Z,6.2
2023-03-19T00:47:39.694Z,6.2
2023-03-19T00:48:47.016Z,6.2
2023-03-19T00:49:54.108Z,6.2
2023-03-19T00:51:02.249Z,6.2
2023-03-19T00:52:07.889Z,6.2
2023-03-19T00:54:21.830Z,6.2
2023-03-19T00:55:28.902Z,6.2
2023-03-19T00:56:36.046Z,6.2
2023-03-19T00:57:42.779Z,6.2
2023-03-19T00:58:49.863Z,6.2
2023-03-19T00:59:57.035Z,6.2
2023-03-19T01:01:04.474Z,6.2
2023-03-19T01:02:11.205Z,6.2
2023-03-19T01:03:17.713Z,6.1
2023-03-19T01:04:24.906Z,6.1
2023-03-19T01:05:32.202Z,6.1
2023-03-19T01:06:39.263Z,6.2
2023-03-19T01:07:46.382Z,6.2
2023-03-19T01:08:52.832Z,6.2
2023-03-19T01:09:59.809Z,6.2
2023-03-19T01:11:06.987Z,6.2
2023-03-19T01:12:14.128Z,6.2
2023-03-19T01:13:21.031Z,6.2
2023-03-19T01:14:27.809Z,6.2
2023-03-19T01:15:35.050Z,6.2
2023-03-19T01:16:41.939Z,6.2
2023-03-19T01:17:49.114Z,6.2
2023-03-19T01:18:56.309Z,6.2
2023-03-19T01:20:02.887Z,6.2
2023-03-19T01:21:09.992Z,6.2
2023-03-19T01:22:17.006Z,6.2
2023-03-19T01:23:24.197Z,6.2
2023-03-19T01:24:31.199Z,6.2
2023-03-19T01:25:37.896Z,6.2
2023-03-19T01:26:44.934Z,6.2
2023-03-19T01:27:52.051Z,6.2
2023-03-19T01:28:59.103Z,6.2
2023-03-19T01:30:05.559Z,6.2
2023-03-19T01:31:12.874Z,6.2
2023-03-19T01:32:19.922Z,6.2
2023-03-19T01:33:27.001Z,6.2
2023-03-19T01:34:34.104Z,6.2
2023-03-19T01:35:40.678Z,6.2
2023-03-19T01:37:54.887Z,6.2
2023-03-19T01:39:02.033Z,6.2
2023-03-19T01:40:09.133Z,6.2
2023-03-19T01:41:15.696Z,6.1
2023-03-19T01:42:22.654Z,6.1
2023-03-19T01:43:29.915Z,6.2
2023-03-19T01:44:36.893Z,6.1
2023-03-19T01:45:44.101Z,6.1
2023-03-19T01:46:50.747Z,6.1
2023-03-19T01:47:57.738Z,6.2
2023-03-19T01:49:04.790Z,6.1
2023-03-19T01:50:12.067Z,6.2
2023-03-19T01:51:19.078Z,6.2
2023-03-19T01:52:25.594Z,6.2
2023-03-19T01:53:32.884Z,6.1
2023-03-19T01:54:39.836Z,6.1
2023-03-19T01:55:46.916Z,6.1
2023-03-19T01:58:00.567Z,6.1
2023-03-19T01:59:07.833Z,6.1
2023-03-19T02:00:14.957Z,6.1
2023-03-19T02:01:22.063Z,6.1
2023-03-19T02:02:28.999Z,6.1
2023-03-19T02:03:35.771Z,6.1
2023-03-19T02:04:42.964Z,6.1
2023-03-19T02:05:49.855Z,6.1
2023-03-19T02:06:56.930Z,6.1
2023-03-19T02:08:04.014Z,6.1
2023-03-19T02:09:10.753Z,6.1
2023-03-19T02:10:17.867Z,6.2
2023-03-19T02:11:24.985Z,6.1
2023-03-19T02:12:31.946Z,6.2
2023-03-19T02:13:39.199Z,6.1
2023-03-19T02:14:45.642Z,6.1
2023-03-19T02:15:53.480Z,6.1
2023-03-19T02:17:00.066Z,6.1
2023-03-19T02:18:06.923Z,6.1
2023-03-19T02:19:14.009Z,6
2023-03-19T02:20:20.591Z,6
2023-03-19T02:21:27.706Z,6
2023-03-19T02:22:35.035Z,6
2023-03-19T02:23:41.979Z,6
2023-03-19T02:24:49.121Z,6
2023-03-19T02:25:55.905Z,6
2023-03-19T02:27:02.738Z,6
2023-03-19T02:28:09.957Z,6
2023-03-19T02:29:16.955Z,6
2023-03-19T02:30:24.151Z,6
2023-03-19T02:31:30.688Z,6
2023-03-19T02:32:37.881Z,6
2023-03-19T02:33:44.881Z,6
2023-03-19T02:34:52.072Z,6
2023-03-19T02:35:59.122Z,6
2023-03-19T02:37:05.771Z,6
2023-03-19T02:38:12.750Z,6
2023-03-19T02:39:20.013Z,6
2023-03-19T02:40:26.967Z,6
2023-03-19T02:41:34.157Z,6
2023-03-19T02:42:40.620Z,6
2023-03-19T02:43:47.775Z,6
2023-03-19T02:44:54.856Z,6
2023-03-19T02:46:02.227Z,6
2023-03-19T02:47:08.634Z,6
2023-03-19T02:48:15.699Z,6
2023-03-19T02:49:22.852Z,6
2023-03-19T02:50:29.972Z,6
2023-03-19T02:51:37.143Z,6
2023-03-19T02:52:44.092Z,6
2023-03-19T02:53:50.878Z,6
2023-03-19T02:54:57.759Z,5.9
2023-03-19T02:56:04.883Z,5.9
2023-03-19T02:57:12.151Z,6
2023-03-19T02:58:19.100Z,6
2023-03-19T02:59:25.678Z,6
2023-03-19T03:01:40.110Z,6
2023-03-19T03:02:47.118Z,6
2023-03-19T03:03:53.576Z,6
2023-03-19T03:06:07.768Z,6
2023-03-19T03:07:14.870Z,6
2023-03-19T03:08:22.045Z,6
2023-03-19T03:09:28.622Z,6
2023-03-19T03:10:35.804Z,6
2023-03-19T03:11:42.819Z,6
2023-03-19T03:12:49.988Z,6
2023-03-19T03:13:57.125Z,6
2023-03-19T03:15:03.726Z,6
2023-03-19T03:16:10.857Z,6
2023-03-19T03:17:17.946Z,6
2023-03-19T03:18:25.088Z,6
2023-03-19T03:19:32.408Z,6
2023-03-19T03:20:38.690Z,6
2023-03-19T03:21:45.854Z,6
2023-03-19T03:22:52.899Z,6
2023-03-19T03:23:59.896Z,6
2023-03-19T03:25:07.171Z,6
2023-03-19T03:26:13.652Z,6
2023-03-19T03:27:20.781Z,6
2023-03-19T03:28:27.966Z,6
2023-03-19T03:29:35.129Z,6
2023-03-19T03:30:42.056Z,6
2023-03-19T03:31:48.763Z,6
2023-03-19T03:32:56.182Z,6
2023-03-19T03:34:02.829Z,6
2023-03-19T03:35:09.919Z,6
2023-03-19T03:36:17.045Z,6
2023-03-19T03:37:23.758Z,6
2023-03-19T03:38:30.704Z,6
2023-03-19T03:39:37.816Z,6
2023-03-19T03:40:45.025Z,6
2023-03-19T03:41:52.232Z,6
2023-03-19T03:42:58.609Z,6
2023-03-19T03:44:05.711Z,6
2023-03-19T03:45:12.865Z,6
2023-03-19T03:46:19.924Z,6
2023-03-19T03:47:27.068Z,6
2023-03-19T03:48:33.793Z,6
2023-03-19T03:49:40.721Z,6
2023-03-19T03:50:47.956Z,6
2023-03-19T03:51:55.068Z,6
2023-03-19T03:53:02.269Z,6
2023-03-19T03:54:08.775Z,6
2023-03-19T03:55:15.934Z,6
2023-03-19T03:56:22.982Z,6
2023-03-19T03:57:29.954Z,6
2023-03-19T03:58:37.205Z,6
2023-03-19T03:59:43.664Z,6
2023-03-19T04:00:50.890Z,6
2023-03-19T04:01:58.015Z,6
2023-03-19T04:03:05.202Z,6
2023-03-19T04:04:12.249Z,6
2023-03-19T04:05:18.783Z,6
2023-03-19T04:06:25.989Z,6
2023-03-19T04:07:32.942Z,6
2023-03-19T04:08:39.963Z,6
2023-03-19T04:09:47.215Z,6
2023-03-19T04:10:53.798Z,6
2023-03-19T04:12:00.826Z,6
2023-03-19T04:13:07.989Z,6
2023-03-19T04:14:15.167Z,6
2023-03-19T04:15:22.106Z,6
2023-03-19T04:16:28.839Z,6
2023-03-19T04:17:35.792Z,6
2023-03-19T04:18:43.044Z,6
2023-03-19T04:19:50.133Z,6
2023-03-19T04:20:56.653Z,6
2023-03-19T04:22:03.819Z,6
2023-03-19T04:23:11.393Z,6
2023-03-19T04:24:18.010Z,6
2023-03-19T04:25:25.006Z,6
2023-03-19T04:26:31.676Z,6
2023-03-19T04:27:38.676Z,6
2023-03-19T04:28:45.894Z,6
2023-03-19T04:29:52.388Z,5.9
2023-03-19T04:31:02.400Z,5.9
2023-03-19T04:32:06.766Z,5.9
2023-03-19T04:34:20.962Z,5.9
2023-03-19T04:35:27.932Z,5.9
2023-03-19T04:36:35.229Z,5.9
2023-03-19T04:37:42.147Z,5.9
2023-03-19T04:38:48.683Z,5.9
2023-03-19T04:39:55.965Z,5.9
2023-03-19T04:41:03.023Z,5.9
2023-03-19T04:42:10.007Z,5.9
2023-03-19T04:43:16.659Z,5.9
2023-03-19T04:44:23.813Z,5.9
2023-03-19T04:45:30.965Z,5.9
2023-03-19T04:46:37.912Z,5.8
2023-03-19T04:47:45.149Z,5.8
2023-03-19T04:48:52.028Z,5.9
2023-03-19T04:49:58.710Z,5.9
2023-03-19T04:51:05.990Z,5.9
2023-03-19T04:52:13.028Z,5.8
2023-03-19T04:53:20.163Z,5.9
2023-03-19T04:54:26.806Z,5.8
2023-03-19T04:55:33.801Z,5.8
2023-03-19T04:56:40.873Z,5.8
2023-03-19T04:57:47.984Z,5.8
2023-03-19T04:58:55.052Z,5.8
2023-03-19T05:00:01.789Z,5.8
2023-03-19T05:01:08.879Z,5.8
2023-03-19T05:02:15.915Z,5.8
2023-03-19T05:03:23.084Z,5.8
2023-03-19T05:04:30.276Z,5.7
2023-03-19T05:05:36.772Z,5.8
2023-03-19T05:06:43.751Z,5.7
2023-03-19T05:08:57.931Z,5.7
2023-03-19T05:10:05.241Z,5.7
2023-03-19T05:11:11.695Z,5.7
2023-03-19T05:12:18.828Z,5.7
2023-03-19T05:13:26.008Z,5.7
2023-03-19T05:14:32.973Z,5.7
2023-03-19T05:15:40.114Z,5.7
2023-03-19T05:16:46.774Z,5.7
2023-03-19T05:17:53.899Z,5.7
2023-03-19T05:19:00.946Z,5.7
2023-03-19T05:20:08.047Z,5.7
2023-03-19T05:21:15.211Z,5.7
2023-03-19T05:22:21.800Z,5.7
2023-03-19T05:23:28.900Z,5.7
2023-03-19T05:24:35.920Z,5.7
2023-03-19T05:25:43.028Z,5.7
2023-03-19T05:26:50.065Z,5.7
2023-03-19T05:27:56.779Z,5.7
2023-03-19T05:29:03.951Z,5.7
2023-03-19T05:30:11.068Z,5.7
2023-03-19T05:31:18.198Z,5.7
2023-03-19T05:32:25.241Z,5.7
2023-03-19T05:33:31.821Z,5.7
2023-03-19T05:34:38.828Z,5.7
2023-03-19T05:35:46.133Z,5.7
2023-03-19T05:36:53.538Z,5.7
2023-03-19T05:38:00.165Z,5.7
2023-03-19T05:39:06.747Z,5.7
2023-03-19T05:40:13.968Z,5.8
2023-03-19T05:41:20.874Z,5.8
2023-03-19T05:42:27.981Z,5.8
2023-03-19T05:43:35.269Z,5.9
2023-03-19T05:44:41.696Z,5.9
2023-03-19T05:45:48.862Z,5.9
2023-03-19T05:46:56.037Z,5.9
2023-03-19T05:48:03.119Z,5.9
2023-03-19T05:49:10.214Z,5.9
2023-03-19T05:50:16.718Z,5.9
2023-03-19T05:51:23.902Z,5.9
2023-03-19T05:52:30.378Z,5.9
2023-03-19T05:52:31.115Z,5.9
2023-03-19T05:53:38.151Z,5.9
2023-03-19T05:54:45.118Z,5.9
2023-03-19T05:55:51.778Z,5.9
2023-03-19T05:56:58.848Z,5.9
2023-03-19T05:58:06.037Z,5.9
2023-03-19T05:59:13.188Z,5.9
2023-03-19T06:00:19.587Z,5.9
2023-03-19T06:02:33.960Z,5.9
2023-03-19T06:03:40.969Z,5.9
2023-03-19T06:04:48.009Z,5.9
2023-03-19T06:05:54.696Z,5.9
2023-03-19T06:07:01.736Z,5.9
2023-03-19T06:08:08.877Z,5.9
2023-03-19T06:09:15.974Z,5.9
2023-03-19T06:10:23.126Z,5.9
2023-03-19T06:12:36.821Z,6
2023-03-19T06:13:44.003Z,5.9
2023-03-19T06:14:51.012Z,5.9
2023-03-19T06:15:58.135Z,5.9
2023-03-19T06:17:04.642Z,5.9
2023-03-19T06:18:11.745Z,5.9
2023-03-19T06:19:18.874Z,5.9
2023-03-19T06:20:26.043Z,5.9
2023-03-19T06:21:33.095Z,6
2023-03-19T06:22:39.710Z,5.9
2023-03-19T06:23:46.751Z,5.9
2023-03-19T06:24:53.936Z,5.9
2023-03-19T06:26:00.978Z,5.9
2023-03-19T06:27:08.149Z,5.9
2023-03-19T06:28:14.694Z,5.9
2023-03-19T06:29:21.810Z,5.8
2023-03-19T06:30:29.486Z,5.8
2023-03-19T06:31:36.272Z,5.8
2023-03-19T06:32:43.176Z,5.8
2023-03-19T06:33:49.676Z,5.8
2023-03-19T06:34:56.855Z,5.8
2023-03-19T06:36:04.111Z,5.8
2023-03-19T06:37:10.954Z,5.8
2023-03-19T06:38:18.159Z,5.8
2023-03-19T06:39:24.753Z,5.8
2023-03-19T06:40:32.025Z,5.7
2023-03-19T06:41:38.984Z,5.8
2023-03-19T06:42:45.988Z,5.8
2023-03-19T06:43:53.268Z,5.8
2023-03-19T06:44:59.643Z,5.8
2023-03-19T06:46:07.831Z,5.7
2023-03-19T06:47:13.975Z,5.7
2023-03-19T06:48:21.129Z,5.8
2023-03-19T06:49:28.144Z,5.8
2023-03-19T06:50:35.007Z,5.8
2023-03-19T06:51:41.778Z,5.8
2023-03-19T06:52:48.976Z,5.8
2023-03-19T06:53:56.169Z,5.7
2023-03-19T06:55:03.198Z,5.8
2023-03-19T06:56:09.661Z,5.7
2023-03-19T06:57:16.923Z,5.7
2023-03-19T06:58:23.982Z,5.7
2023-03-19T06:59:31.026Z,5.8
2023-03-19T07:00:38.211Z,5.8
2023-03-19T07:01:44.790Z,5.8
2023-03-19T07:02:51.918Z,5.7
2023-03-19T07:03:59.003Z,5.8
2023-03-19T07:05:06.150Z,5.7
2023-03-19T07:06:13.303Z,5.7
2023-03-19T07:07:19.673Z,5.7
2023-03-19T07:08:26.833Z,5.7
2023-03-19T07:09:33.995Z,5.7
2023-03-19T07:10:41.083Z,5.7
2023-03-19T07:11:48.190Z,5.7
2023-03-19T07:12:54.800Z,5.7
2023-03-19T07:14:01.860Z,5.7
2023-03-19T07:15:08.947Z,5.7
2023-03-19T07:16:16.047Z,5.7
2023-03-19T07:17:22.714Z,5.7
2023-03-19T07:18:29.687Z,5.7
2023-03-19T07:19:36.827Z,5.7
2023-03-19T07:20:43.914Z,5.7
2023-03-19T07:21:51.108Z,5.7
2023-03-19T07:22:57.717Z,5.7
2023-03-19T07:24:04.773Z,5.7
2023-03-19T07:25:11.921Z,5.7
2023-03-19T07:26:19.005Z,5.7
2023-03-19T07:27:26.157Z,5.7
2023-03-19T07:28:32.628Z,5.7
2023-03-19T07:30:46.939Z,5.8
2023-03-19T07:31:54.165Z,5.8
2023-03-19T07:33:01.160Z,5.9
2023-03-19T07:34:08.239Z,5.9
2023-03-19T07:35:14.794Z,5.9
2023-03-19T07:36:21.952Z,5.9
2023-03-19T07:37:28.932Z,5.9
2023-03-19T07:38:36.105Z,5.9
2023-03-19T07:39:42.749Z,5.9
2023-03-19T07:41:01.582Z,5.9
2023-03-19T07:41:56.853Z,5.9
2023-03-19T07:43:04.086Z,5.9
2023-03-19T07:44:11.258Z,5.9
2023-03-19T07:45:17.693Z,5.9
2023-03-19T07:46:24.732Z,5.9
2023-03-19T07:47:32.050Z,6
2023-03-19T07:48:39.052Z,6
2023-03-19T07:49:46.297Z,5.9
2023-03-19T07:50:52.675Z,5.9
2023-03-19T07:51:59.814Z,5.9
2023-03-19T07:53:06.930Z,6
2023-03-19T07:54:14.066Z,6
2023-03-19T07:55:21.146Z,6
2023-03-19T07:56:27.727Z,6
2023-03-19T07:57:34.938Z,6
2023-03-19T07:58:41.921Z,6.1
2023-03-19T07:59:49.197Z,6.1
2023-03-19T08:00:56.175Z,6.1
2023-03-19T08:02:02.868Z,6.1
2023-03-19T08:03:09.939Z,6.1
2023-03-19T08:04:17.102Z,6.1
2023-03-19T08:05:24.065Z,6.2
2023-03-19T08:06:31.789Z,6.3
2023-03-19T08:07:38.180Z,6.3
2023-03-19T08:08:44.935Z,6.3
2023-03-19T08:09:51.968Z,6.3
2023-03-19T08:11:02.192Z,6.4
2023-03-19T08:12:06.105Z,6.4
2023-03-19T08:13:12.697Z,6.5
2023-03-19T08:14:19.764Z,6.6
2023-03-19T08:15:27.010Z,6.6
2023-03-19T08:16:34.059Z,6.6
2023-03-19T08:17:41.108Z,6.6
2023-03-19T08:19:54.936Z,6.7
2023-03-19T08:21:02.408Z,6.7
2023-03-19T08:22:09.146Z,6.7
2023-03-19T08:23:16.115Z,6.8
2023-03-19T08:24:22.716Z,6.8
2023-03-19T08:25:29.780Z,6.8
2023-03-19T08:26:37.009Z,6.8
2023-03-19T08:27:44.123Z,6.8
2023-03-19T08:28:51.386Z,6.8
2023-03-19T08:29:57.780Z,6.8
2023-03-19T08:31:04.878Z,6.8
2023-03-19T08:32:12.008Z,6.8
2023-03-19T08:33:19.169Z,6.8
2023-03-19T08:34:25.628Z,6.8
2023-03-19T08:35:32.880Z,6.8
2023-03-19T08:36:39.924Z,6.8
2023-03-19T08:38:54.054Z,6.8
2023-03-19T08:40:00.850Z,6.9
2023-03-19T08:41:07.789Z,6.9
2023-03-19T08:42:14.951Z,6.9
2023-03-19T08:43:22.182Z,7
2023-03-19T08:44:29.093Z,7
2023-03-19T08:45:35.611Z,7
2023-03-19T08:46:42.965Z,7
2023-03-19T08:47:49.865Z,7
2023-03-19T08:48:56.990Z,7
2023-03-19T08:50:04.138Z,7
2023-03-19T08:51:10.720Z,7
2023-03-19T08:52:17.834Z,7
2023-03-19T08:53:24.929Z,7
2023-03-19T08:54:32.049Z,7.1
2023-03-19T08:55:39.150Z,7.1
2023-03-19T08:56:45.815Z,7.1
2023-03-19T08:59:00.005Z,7
2023-03-19T09:00:06.972Z,7
2023-03-19T09:01:14.229Z,7
2023-03-19T09:02:20.684Z,7
2023-03-19T09:03:27.723Z,7
2023-03-19T09:04:35.005Z,7
2023-03-19T09:05:42.058Z,7
2023-03-19T09:06:49.051Z,7
2023-03-19T09:07:55.795Z,6.9
2023-03-19T09:09:02.867Z,6.9
2023-03-19T09:10:09.926Z,6.9
2023-03-19T09:11:17.154Z,6.9
2023-03-19T09:12:24.175Z,6.9
2023-03-19T09:13:30.728Z,6.9
2023-03-19T09:14:37.841Z,6.9
2023-03-19T09:15:44.994Z,6.9
2023-03-19T09:16:51.979Z,6.9
2023-03-19T09:17:59.151Z,6.8
2023-03-19T09:19:05.800Z,6.8
2023-03-19T09:19:05.855Z,6.8
2023-03-19T09:20:12.782Z,6.8
2023-03-19T09:21:19.944Z,6.8
2023-03-19T09:23:34.187Z,6.8
2023-03-19T09:24:40.900Z,6.8
2023-03-19T09:25:47.755Z,6.8
2023-03-19T09:26:54.939Z,6.8
2023-03-19T09:28:02.064Z,6.8
2023-03-19T09:29:09.208Z,6.8
2023-03-19T09:30:15.835Z,6.8
2023-03-19T09:31:22.876Z,6.8
2023-03-19T09:32:29.876Z,6.8
2023-03-19T09:33:37.105Z,6.8
2023-03-19T09:34:44.682Z,6.8
2023-03-19T09:35:50.882Z,6.8
2023-03-19T09:36:57.795Z,6.8
2023-03-19T09:38:05.036Z,6.8
2023-03-19T09:39:12.133Z,6.7
2023-03-19T09:40:19.215Z,6.7
2023-03-19T09:41:26.225Z,6.7
2023-03-19T09:42:32.893Z,6.7
2023-03-19T09:43:39.949Z,6.6
2023-03-19T09:44:47.190Z,6.6
2023-03-19T09:45:54.251Z,6.6
2023-03-19T09:47:00.737Z,6.6
2023-03-19T09:48:07.893Z,6.6
2023-03-19T09:49:15.051Z,6.6
2023-03-19T09:50:22.072Z,6.5
2023-03-19T09:51:29.227Z,6.5
2023-03-19T09:52:35.736Z,6.6
2023-03-19T09:53:42.860Z,6.5
2023-03-19T09:54:50.019Z,6.6
2023-03-19T09:55:57.254Z,6.6
2023-03-19T09:57:03.870Z,6.6
2023-03-19T09:58:10.826Z,6.6
2023-03-19T09:59:17.896Z,6.6
2023-03-19T10:00:25.095Z,6.7
2023-03-19T10:01:32.170Z,6.6
2023-03-19T10:02:39.252Z,6.7
2023-03-19T10:03:45.799Z,6.7
2023-03-19T10:04:52.957Z,6.7
2023-03-19T10:05:59.986Z,6.8
2023-03-19T10:07:07.146Z,6.8
2023-03-19T10:08:13.720Z,6.8
2023-03-19T10:09:20.711Z,6.8
2023-03-19T10:10:27.821Z,6.9
2023-03-19T10:11:35.138Z,6.9
2023-03-19T10:12:42.141Z,6.9
2023-03-19T10:13:48.669Z,7
2023-03-19T10:14:55.841Z,7
2023-03-19T10:16:02.963Z,7
2023-03-19T10:17:10.029Z,7
2023-03-19T10:18:17.205Z,7
2023-03-19T10:19:23.667Z,7
2023-03-19T10:20:30.870Z,7
2023-03-19T10:21:37.928Z,7
2023-03-19T10:22:45.010Z,7
2023-03-19T10:23:52.189Z,7
2023-03-19T10:24:58.745Z,7
2023-03-19T10:27:12.993Z,7
2023-03-19T10:28:20.055Z,7
2023-03-19T10:29:27.156Z,7
2023-03-19T10:30:34.193Z,7
2023-03-19T10:31:40.904Z,7
2023-03-19T10:32:48.003Z,7
2023-03-19T10:33:55.127Z,7
2023-03-19T10:35:02.085Z,7
2023-03-19T10:36:08.782Z,7
2023-03-19T10:37:15.831Z,7
2023-03-19T10:38:23.028Z,7
2023-03-19T10:39:29.981Z,6.9
2023-03-19T10:40:37.210Z,6.9
2023-03-19T10:41:43.793Z,6.9
2023-03-19T10:42:50.845Z,6.9
2023-03-19T10:43:57.992Z,6.9
2023-03-19T10:45:05.156Z,6.9
2023-03-19T10:46:12.269Z,6.9
2023-03-19T10:47:18.669Z,6.9
2023-03-19T10:48:28.122Z,6.8
2023-03-19T10:49:32.986Z,6.8
2023-03-19T10:50:40.095Z,6.8
2023-03-19T10:51:47.133Z,6.8
2023-03-19T10:52:53.720Z,6.8
2023-03-19T10:54:00.947Z,6.8
2023-03-19T10:55:08.013Z,6.8
2023-03-19T10:56:15.147Z,6.8
2023-03-19T10:57:22.146Z,6.8
2023-03-19T10:58:28.906Z,6.7
2023-03-19T10:59:35.846Z,6.7
2023-03-19T11:00:43.078Z,6.8
2023-03-19T11:01:50.083Z,6.8
2023-03-19T11:02:57.633Z,6.8
2023-03-19T11:04:03.900Z,6.8
2023-03-19T11:05:10.789Z,6.8
2023-03-19T11:06:17.904Z,6.9
2023-03-19T11:07:25.265Z,6.9
2023-03-19T11:08:35.905Z,6.9
2023-03-19T11:09:38.886Z,7
2023-03-19T11:10:45.937Z,7
2023-03-19T11:11:53.087Z,7
2023-03-19T11:13:00.160Z,7
2023-03-19T11:14:07.186Z,7
2023-03-19T11:15:13.893Z,7.1
2023-03-19T11:16:20.964Z,7.1
2023-03-19T11:17:28.003Z,7.1
2023-03-19T11:18:35.201Z,7.1
2023-03-19T11:19:42.200Z,7.1
2023-03-19T11:20:49.055Z,7.1
2023-03-19T11:21:56.039Z,7.2
2023-03-19T11:23:03.072Z,7.2
2023-03-19T11:24:10.265Z,7.2
2023-03-19T11:25:17.298Z,7.1
2023-03-19T11:26:23.763Z,7.2
2023-03-19T11:27:31.055Z,7.1
2023-03-19T11:28:37.935Z,7
2023-03-19T11:30:52.238Z,7
2023-03-19T11:32:02.007Z,7
2023-03-19T11:33:06.024Z,7
2023-03-19T11:34:12.973Z,7
2023-03-19T11:35:20.151Z,7
2023-03-19T11:36:26.726Z,7
2023-03-19T11:37:33.893Z,7
2023-03-19T11:38:40.970Z,7
2023-03-19T11:39:48.025Z,7
2023-03-19T11:40:55.076Z,7
2023-03-19T11:42:02.261Z,7
2023-03-19T11:43:08.838Z,7
2023-03-19T11:44:16.006Z,7
2023-03-19T11:45:23.079Z,7
2023-03-19T11:46:30.111Z,7.1
2023-03-19T11:47:36.670Z,7.1
2023-03-19T11:48:44.352Z,7.1
2023-03-19T11:49:50.847Z,7.2
2023-03-19T11:50:58.040Z,7.3
2023-03-19T11:52:05.100Z,7.3
2023-03-19T11:53:11.777Z,7.3
2023-03-19T11:55:26.046Z,7.3
2023-03-19T11:56:33.056Z,7.3
2023-03-19T11:57:40.121Z,7.3
2023-03-19T11:58:46.704Z,7.3
2023-03-19T11:59:53.899Z,7.3
2023-03-19T12:01:02.407Z,7.3
2023-03-19T12:02:08.110Z,7.3
2023-03-19T12:03:15.158Z,7.3
2023-03-19T12:04:21.823Z,7.2
2023-03-19T12:05:28.875Z,7.2
2023-03-19T12:06:36.024Z,7.2
2023-03-19T12:07:43.182Z,7.2
2023-03-19T12:08:50.159Z,7.2
2023-03-19T12:09:56.795Z,7.2
2023-03-19T12:11:03.865Z,7.2
2023-03-19T12:12:11.017Z,7.3
2023-03-19T12:13:18.058Z,7.3
2023-03-19T12:14:25.260Z,7.4
2023-03-19T12:15:31.985Z,7.5
2023-03-19T12:16:45.804Z,7.5
2023-03-19T12:17:45.956Z,7.5
2023-03-19T12:18:53.116Z,7.6
2023-03-19T12:20:00.172Z,7.6
2023-03-19T12:21:06.804Z,7.6
2023-03-19T12:22:13.875Z,7.6
2023-03-19T12:23:20.977Z,7.7
2023-03-19T12:24:28.325Z,7.7
2023-03-19T12:25:35.517Z,7.7
2023-03-19T12:26:41.786Z,7.7
2023-03-19T12:27:48.803Z,7.7
2023-03-19T12:28:56.011Z,7.7
2023-03-19T12:30:03.169Z,7.7
2023-03-19T12:31:10.841Z,7.6
2023-03-19T12:32:16.802Z,7.6
2023-03-19T12:34:31.065Z,7.6
2023-03-19T12:35:38.495Z,7.6
2023-03-19T12:36:45.234Z,7.6
2023-03-19T12:37:51.831Z,7.6
2023-03-19T12:38:58.858Z,7.5
2023-03-19T12:40:06.030Z,7.5
2023-03-19T12:41:13.116Z,7.5
2023-03-19T12:42:20.137Z,7.5
2023-03-19T12:43:26.760Z,7.5
2023-03-19T12:44:33.881Z,7.4
2023-03-19T12:45:41.020Z,7.3
2023-03-19T12:46:48.061Z,7.3
2023-03-19T12:47:55.295Z,7.3
2023-03-19T12:49:01.939Z,7.3
2023-03-19T12:50:08.936Z,7.3
2023-03-19T12:51:16.106Z,7.3
2023-03-19T12:52:23.174Z,7.4
2023-03-19T12:53:30.322Z,7.3
2023-03-19T12:54:36.799Z,7.4
2023-03-19T12:55:44.036Z,7.4
2023-03-19T12:56:51.041Z,7.4
2023-03-19T12:57:58.058Z,7.4
2023-03-19T12:59:04.637Z,7.4
2023-03-19T13:00:11.950Z,7.5
2023-03-19T13:01:18.895Z,7.5
2023-03-19T13:02:26.213Z,7.5
2023-03-19T13:03:33.161Z,7.5
2023-03-19T13:04:40.020Z,7.5
2023-03-19T13:05:46.787Z,7.6
2023-03-19T13:06:54.021Z,7.6
2023-03-19T13:08:01.025Z,7.7
2023-03-19T13:09:08.127Z,7.7
2023-03-19T13:10:14.768Z,7.8
2023-03-19T13:11:21.842Z,7.8
2023-03-19T13:12:28.922Z,7.8
2023-03-19T13:13:36.075Z,7.8
2023-03-19T13:14:43.218Z,7.9
2023-03-19T13:15:49.746Z,7.8
2023-03-19T13:16:57.014Z,7.8
2023-03-19T13:18:03.898Z,7.8
2023-03-19T13:19:10.989Z,7.8
2023-03-19T13:20:18.198Z,7.8
2023-03-19T13:21:24.850Z,7.8
2023-03-19T13:23:38.902Z,7.8
2023-03-19T13:24:46.130Z,7.7
2023-03-19T13:25:53.115Z,7.7
2023-03-19T13:26:59.980Z,7.7
2023-03-19T13:28:06.960Z,7.7
2023-03-19T13:29:14.030Z,7.7
2023-03-19T13:30:21.053Z,7.6
2023-03-19T13:31:28.352Z,7.6
2023-03-19T13:32:34.790Z,7.6
2023-03-19T13:33:41.911Z,7.5
2023-03-19T13:34:48.934Z,7.5
2023-03-19T13:35:56.125Z,7.5
2023-03-19T13:38:09.797Z,7.5
2023-03-19T13:39:16.937Z,7.5
2023-03-19T13:40:23.933Z,7.5
2023-03-19T13:41:31.077Z,7.5
2023-03-19T13:42:38.186Z,7.4
2023-03-19T13:43:44.958Z,7.4
2023-03-19T13:44:51.889Z,7.4
2023-03-19T13:45:58.905Z,7.4
2023-03-19T13:47:06.137Z,7.4
2023-03-19T13:48:23.870Z,7.4
2023-03-19T13:49:19.760Z,7.4
2023-03-19T13:50:26.940Z,7.4
2023-03-19T13:51:34.080Z,7.4
2023-03-19T13:52:41.090Z,7.4
2023-03-19T13:53:48.125Z,7.4
2023-03-19T13:54:54.912Z,7.4
2023-03-19T13:56:02.538Z,7.4
2023-03-19T13:58:16.174Z,7.3
2023-03-19T14:01:36.894Z,7.4
2023-03-19T14:02:43.952Z,7.4
2023-03-19T14:03:51.136Z,7.4
2023-03-19T14:04:58.216Z,7.4
2023-03-19T14:06:04.899Z,7.4
2023-03-19T14:07:11.945Z,7.4
2023-03-19T14:08:18.936Z,7.4
2023-03-19T14:10:33.106Z,7.2
2023-03-19T14:11:39.832Z,7.1
2023-03-19T14:12:46.866Z,7.1
2023-03-19T14:13:54.102Z,7
2023-03-19T14:15:01.130Z,7
2023-03-19T14:16:07.724Z,7
2023-03-19T14:17:14.914Z,7
2023-03-19T14:18:21.987Z,7
2023-03-19T14:19:29.103Z,7
2023-03-19T14:20:40.885Z,7
2023-03-19T14:21:46.728Z,7
2023-03-19T14:22:49.879Z,7
2023-03-19T14:23:57.590Z,7
2023-03-19T14:25:03.989Z,7
2023-03-19T14:26:11.071Z,7
2023-03-19T14:27:17.747Z,7
2023-03-19T14:28:24.874Z,7.1
2023-03-19T14:29:31.986Z,7.1
2023-03-19T14:30:38.984Z,7.1
2023-03-19T14:31:46.122Z,7.1
2023-03-19T14:32:52.735Z,7.2
2023-03-19T14:33:59.794Z,7.2
2023-03-19T14:35:07.043Z,7.2
2023-03-19T14:36:14.072Z,7.2
2023-03-19T14:37:21.174Z,7.2
2023-03-19T14:38:27.796Z,7.2
2023-03-19T14:39:34.922Z,7.2
2023-03-19T14:41:49.120Z,7.2
2023-03-19T14:42:56.178Z,7.3
2023-03-19T14:44:02.827Z,7.3
2023-03-19T14:45:09.994Z,7.3
2023-03-19T14:46:16.997Z,7.3
2023-03-19T14:47:23.996Z,7.3
2023-03-19T14:48:31.178Z,7.3
2023-03-19T14:49:37.753Z,7.3
2023-03-19T14:51:52.061Z,7.4
2023-03-19T14:52:59.110Z,7.4
2023-03-19T14:54:06.208Z,7.4
2023-03-19T14:55:12.857Z,7.4
2023-03-19T14:56:19.857Z,7.4
2023-03-19T14:57:27.017Z,7.4
2023-03-19T14:58:34.145Z,7.4
2023-03-19T14:59:41.213Z,7.4
2023-03-19T15:00:47.844Z,7.4
2023-03-19T15:01:54.842Z,7.5
2023-03-19T15:03:01.945Z,7.4
2023-03-19T15:04:09.119Z,7.4
2023-03-19T15:05:16.429Z,7.4
2023-03-19T15:06:22.808Z,7.4
2023-03-19T15:07:29.884Z,7.4
2023-03-19T15:08:36.988Z,7.3
2023-03-19T15:09:44.090Z,7.3
2023-03-19T15:10:51.210Z,7.3
2023-03-19T15:11:57.715Z,7.2
2023-03-19T15:13:04.964Z,7.2
2023-03-19T15:14:12.042Z,7.2
2023-03-19T15:15:19.215Z,7.2
2023-03-19T15:16:26.199Z,7.2
2023-03-19T15:17:32.925Z,7.2
2023-03-19T15:18:39.946Z,7.2
2023-03-19T15:19:47.219Z,7.2
2023-03-19T15:20:54.189Z,7.1
2023-03-19T15:22:01.152Z,7.1
2023-03-19T15:23:16.630Z,7.1
2023-03-19T15:24:14.964Z,7.1
2023-03-19T15:25:22.026Z,7.1
2023-03-19T15:26:29.130Z,7.1
2023-03-19T15:27:36.286Z,7.1
2023-03-19T15:28:44.581Z,7.1
2023-03-19T15:29:51.693Z,7.1
2023-03-19T15:31:03.476Z,7.1
2023-03-19T15:32:07.496Z,7.1
2023-03-19T15:33:22.904Z,7.1
2023-03-19T15:34:18.084Z,7.1
2023-03-19T15:35:25.019Z,7.1
2023-03-19T15:36:32.121Z,7.1
2023-03-19T15:37:39.171Z,7.1
2023-03-19T15:38:46.193Z,7.1
2023-03-19T15:39:52.871Z,7.1
2023-03-19T15:41:02.502Z,7.1
2023-03-19T15:42:07.064Z,7.1
2023-03-19T15:43:14.182Z,7.1
2023-03-19T15:45:27.808Z,7.1
2023-03-19T15:46:35.073Z,7
2023-03-19T15:47:42.082Z,7
2023-03-19T15:48:49.179Z,7
2023-03-19T15:49:55.836Z,7
2023-03-19T15:51:02.881Z,7
2023-03-19T15:52:09.990Z,7
2023-03-19T15:53:17.162Z,7
2023-03-19T15:54:24.177Z,7
2023-03-19T15:55:30.783Z,7
2023-03-19T15:56:37.949Z,7
2023-03-19T15:57:45.015Z,7
2023-03-19T15:58:53.306Z,7
2023-03-19T15:59:59.164Z,6.9
2023-03-19T16:01:05.726Z,7
2023-03-19T16:02:12.901Z,7
2023-03-19T16:03:20.511Z,7
2023-03-19T16:04:27.068Z,6.9
2023-03-19T16:05:34.204Z,6.9
2023-03-19T16:06:40.685Z,6.9
2023-03-19T16:07:47.793Z,6.9